Time;durP1;ratioP1;P1;durP2;ratioP2;P2;SDS_P1;SDS_P2;PMS_P1;PMS_P2;Temp;Humidity;BMP_temperature;BMP_pressure;BME280_temperature;BME280_humidity;BME280_pressure;Samples;Min_cycle;Max_cycle;Signal;HPM_P1;HPM_P2
2021/12/16 00:03:50;;;;;;;85.07;45.57;;;9.70;99.90;;;;;;4937061;29;20036;-75
2021/12/16 00:09:07;;;;;;;85.07;46.20;;;;;;;;;;4929851;29;20040;-74
2021/12/16 00:33:19;;;;;;;80.77;45.53;;;9.60;99.90;;;;;;4989612;28;20084;-74
2021/12/16 00:35:50;;;;;;;84.43;47.53;;;9.60;99.90;;;;;;4989872;28;20102;-74
2021/12/16 00:38:17;;;;;;;86.00;47.20;;;9.60;99.90;;;;;;4989314;28;20109;-74
2021/12/16 00:40:43;;;;;;;74.83;41.67;;;;;;;;;;4991112;28;20034;-75
2021/12/16 00:43:20;;;;;;;76.13;45.73;;;9.70;99.90;;;;;;4993002;28;20471;-74
2021/12/16 00:46:12;;;;;;;74.40;43.47;;;9.60;99.90;;;;;;4986971;28;20129;-75
2021/12/16 00:56:32;;;;;;;87.40;46.53;;;9.70;99.90;;;;;;4993236;28;20116;-74
2021/12/16 00:58:59;;;;;;;90.77;45.23;;;9.70;99.90;;;;;;4997703;28;20097;-75
2021/12/16 01:07:25;;;;;;;84.37;42.87;;;9.60;99.90;;;;;;4970185;28;20027;-74
2021/12/16 01:35:12;;;;;;;82.90;42.57;;;;;;;;;;4975664;28;19944;-74
2021/12/16 01:46:31;;;;;;;81.20;46.10;;;;;;;;;;4996245;28;20029;-75
2021/12/16 01:51:21;;;;;;;86.93;46.57;;;;;;;;;;4990728;28;20069;-74
2021/12/16 01:59:02;;;;;;;98.97;52.10;;;;;;;;;;4995829;28;20041;-74
2021/12/16 02:01:32;;;;;;;84.10;46.50;;;9.50;99.90;;;;;;4990733;28;20037;-74
2021/12/16 02:04:15;;;;;;;95.57;50.70;;;9.50;99.90;;;;;;4989851;28;20041;-74
2021/12/16 02:07:01;;;;;;;81.50;43.92;;;9.70;99.90;;;;;;4991865;28;20030;-74
2021/12/16 02:09:35;;;;;;;81.73;44.40;;;9.50;99.90;;;;;;4991493;28;20050;-74
2021/12/16 02:12:31;;;;;;;87.57;45.37;;;9.40;99.90;;;;;;4991384;28;20031;-74
2021/12/16 02:28:52;;;;;;;72.07;40.67;;;9.40;99.90;;;;;;4993753;28;20491;-74
2021/12/16 02:31:51;;;;;;;;;;;9.90;99.90;;;;;;4991752;28;20022;-75
2021/12/16 02:34:27;;;;;;;73.93;41.00;;;9.10;99.90;;;;;;5005731;28;19912;-74
2021/12/16 02:36:54;;;;;;;71.27;40.77;;;;;;;;;;4991166;28;20023;-74
2021/12/16 02:39:26;;;;;;;74.43;43.80;;;9.20;99.90;;;;;;4991107;28;20494;-74
2021/12/16 02:42:05;;;;;;;69.40;41.10;;;9.20;99.90;;;;;;4990722;28;20053;-74
2021/12/16 02:44:39;;;;;;;84.40;45.10;;;;;;;;;;4989692;28;20026;-74
2021/12/16 02:49:54;;;;;;;60.73;40.00;;;;;;;;;;4989051;28;20049;-74
2021/12/16 02:52:23;;;;;;;68.67;40.47;;;9.30;99.90;;;;;;4988845;28;20037;-74
2021/12/16 02:54:49;;;;;;;67.90;39.80;;;;;;;;;;4987740;28;20041;-75
2021/12/16 02:57:16;;;;;;;72.27;40.23;;;9.30;99.90;;;;;;4988804;28;20038;-74
2021/12/16 02:59:43;;;;;;;62.50;37.90;;;9.30;99.90;;;;;;4995535;28;20026;-75
2021/12/16 03:02:16;;;;;;;66.00;39.97;;;9.30;99.90;;;;;;4992608;28;20038;-74
2021/12/16 03:04:45;;;;;;;69.05;40.13;;;9.20;99.90;;;;;;4990811;28;20510;-74
2021/12/16 03:07:14;;;;;;;68.80;40.07;;;9.10;99.90;;;;;;4989052;28;20034;-75
2021/12/16 03:10:08;;;;;;;80.03;42.43;;;9.10;99.90;;;;;;4989800;28;20037;-74
2021/12/16 03:17:56;;;;;;;73.60;41.72;;;9.00;99.90;;;;;;4990414;28;20038;-75
2021/12/16 03:20:35;;;;;;;74.63;41.20;;;;;;;;;;4989045;28;20176;-74
2021/12/16 03:23:18;;;;;;;72.87;39.33;;;8.80;99.90;;;;;;4988735;28;20514;-74
2021/12/16 03:26:27;;;;;;;71.57;38.75;;;8.90;99.90;;;;;;4990462;28;20444;-74
2021/12/16 03:37:14;;;;;;;72.40;42.90;;;8.60;99.90;;;;;;4990428;28;20121;-74
2021/12/16 03:39:57;;;;;;;75.53;41.63;;;8.80;99.90;;;;;;4995591;28;20100;-74
2021/12/16 03:42:25;;;;;;;62.58;38.85;;;8.90;99.90;;;;;;4990136;28;20042;-74
2021/12/16 03:44:59;;;;;;;61.40;36.80;;;8.80;99.90;;;;;;4990018;28;20031;-74
2021/12/16 03:47:36;;;;;;;66.57;39.20;;;9.00;99.90;;;;;;4993928;28;20022;-74
2021/12/16 03:50:10;;;;;;;66.60;37.03;;;8.80;99.90;;;;;;4989907;28;20038;-74
2021/12/16 03:52:37;;;;;;;69.10;41.00;;;8.90;99.90;;;;;;4990506;28;20026;-74
2021/12/16 03:55:04;;;;;;;62.00;38.07;;;9.00;99.90;;;;;;4989798;28;20198;-74
2021/12/16 03:57:32;;;;;;;63.73;38.20;;;8.70;99.90;;;;;;4988758;28;20027;-74
2021/12/16 03:59:58;;;;;;;64.83;39.87;;;;;;;;;;4991999;28;20023;-74
2021/12/16 04:02:30;;;;;;;77.80;42.20;;;9.00;99.90;;;;;;4990570;28;20050;-74
2021/12/16 04:04:56;;;;;;;74.07;41.93;;;9.10;99.90;;;;;;4989830;28;20503;-74
2021/12/16 04:07:28;;;;;;;63.27;39.07;;;8.80;99.90;;;;;;4989974;28;20030;-74
2021/12/16 04:09:53;;;;;;;73.63;41.33;;;9.10;99.90;;;;;;4989813;28;20027;-74
2021/12/16 04:12:21;;;;;;;92.87;45.27;;;9.10;99.90;;;;;;4989902;28;20034;-74
2021/12/16 04:14:50;;;;;;;71.00;44.23;;;9.10;99.90;;;;;;4989609;28;20115;-74
2021/12/16 04:17:19;;;;;;;71.07;41.17;;;9.10;99.90;;;;;;4993519;28;20054;-74
2021/12/16 04:19:44;;;;;;;78.50;39.00;;;9.00;99.90;;;;;;4994773;28;20357;-73
2021/12/16 04:22:31;;;;;;;75.07;39.50;;;9.20;99.90;;;;;;4993403;28;20053;-74
2021/12/16 04:25:01;;;;;;;74.90;40.60;;;9.00;99.90;;;;;;4993791;28;20165;-74
2021/12/16 04:27:28;;;;;;;75.30;40.57;;;9.50;99.90;;;;;;4993867;28;20023;-74
2021/12/16 04:29:53;;;;;;;80.13;41.73;;;9.20;99.90;;;;;;4991452;28;20072;-74
2021/12/16 04:32:19;;;;;;;79.57;40.13;;;9.20;99.90;;;;;;4993526;28;20117;-74
2021/12/16 04:34:45;;;;;;;85.67;46.43;;;9.10;99.90;;;;;;4993495;28;20033;-75
2021/12/16 04:37:12;;;;;;;75.30;40.80;;;9.10;99.90;;;;;;4993180;28;20503;-74
2021/12/16 04:39:39;;;;;;;84.57;42.57;;;9.10;99.90;;;;;;4998561;28;20031;-74
2021/12/16 04:42:06;;;;;;;90.70;43.73;;;9.20;99.90;;;;;;4992969;28;20038;-74
2021/12/16 04:44:33;;;;;;;92.87;43.37;;;9.10;99.90;;;;;;4992658;28;20479;-74
2021/12/16 04:47:00;;;;;;;93.30;42.10;;;9.10;99.90;;;;;;4991593;28;20077;-74
2021/12/16 04:49:26;;;;;;;96.57;46.23;;;;;;;;;;4993285;28;20105;-74
2021/12/16 04:51:55;;;;;;;86.83;42.23;;;9.20;99.90;;;;;;4992995;28;20785;-74
2021/12/16 04:54:23;;;;;;;96.90;42.27;;;;;;;;;;4993168;28;20081;-74
2021/12/16 04:56:49;;;;;;;91.43;42.77;;;9.10;99.90;;;;;;4993055;28;20018;-74
2021/12/16 04:59:17;;;;;;;93.43;40.90;;;9.30;99.90;;;;;;4992586;28;20153;-74
2021/12/16 05:01:48;;;;;;;88.87;42.53;;;9.00;99.90;;;;;;4996414;28;20435;-74
2021/12/16 05:04:14;;;;;;;114.93;46.87;;;9.00;99.90;;;;;;4992753;28;20113;-74
2021/12/16 05:06:40;;;;;;;118.67;47.10;;;;;;;;;;4992879;28;20038;-74
2021/12/16 05:09:07;;;;;;;124.73;46.90;;;8.90;99.90;;;;;;4992604;28;20428;-74
2021/12/16 05:11:35;;;;;;;114.67;43.00;;;8.90;99.90;;;;;;4992903;28;20030;-74
2021/12/16 05:14:02;;;;;;;116.00;45.37;;;8.80;99.90;;;;;;4992906;28;20026;-74
2021/12/16 05:16:28;;;;;;;83.53;40.10;;;9.00;99.90;;;;;;4991313;28;20055;-75
2021/12/16 05:18:55;;;;;;;81.47;39.23;;;9.00;99.90;;;;;;4991127;28;20065;-74
2021/12/16 05:24:16;;;;;;;128.17;42.00;;;8.90;99.90;;;;;;4992548;28;20133;-74
2021/12/16 05:26:43;;;;;;;123.90;45.23;;;8.90;99.90;;;;;;4991994;28;20026;-74
2021/12/16 05:29:09;;;;;;;113.80;40.77;;;;;;;;;;4992221;28;20025;-75
2021/12/16 05:31:35;;;;;;;102.37;40.40;;;8.90;99.90;;;;;;4992502;28;20041;-74
2021/12/16 05:34:03;;;;;;;133.13;43.20;;;9.00;99.90;;;;;;4991873;28;20031;-74
2021/12/16 05:36:28;;;;;;;159.67;47.13;;;8.90;99.90;;;;;;4997241;28;20026;-74
2021/12/16 05:38:54;;;;;;;77.67;37.10;;;;;;;;;;4992084;28;20038;-74
2021/12/16 05:41:21;;;;;;;68.60;35.67;;;9.10;99.90;;;;;;4990466;28;20555;-74
2021/12/16 05:43:47;;;;;;;116.77;37.90;;;9.00;99.90;;;;;;4992239;28;20034;-74
2021/12/16 05:46:15;;;;;;;123.43;40.10;;;8.90;99.90;;;;;;4991774;28;20042;-74
2021/12/16 05:48:43;;;;;;;65.57;34.70;;;8.90;99.90;;;;;;4992236;28;20041;-74
2021/12/16 05:51:16;;;;;;;132.03;42.23;;;8.90;99.90;;;;;;4991756;28;20037;-74
2021/12/16 05:53:44;;;;;;;119.07;40.17;;;8.90;99.90;;;;;;4992067;28;20475;-74
2021/12/16 05:56:10;;;;;;;107.03;39.90;;;9.00;99.90;;;;;;4983482;28;20033;-74
2021/12/16 05:58:37;;;;;;;74.43;34.97;;;8.90;99.90;;;;;;4984334;28;20440;-75
2021/12/16 06:01:14;;;;;;;118.13;37.13;;;8.80;99.90;;;;;;4991835;28;20024;-74
2021/12/16 06:03:41;;;;;;;177.80;44.77;;;8.90;99.90;;;;;;4991649;28;20042;-74
2021/12/16 06:06:07;;;;;;;101.10;39.90;;;8.90;99.90;;;;;;4991193;28;20371;-74
2021/12/16 06:08:34;;;;;;;99.97;37.17;;;8.80;99.90;;;;;;4991740;28;20109;-74
2021/12/16 06:13:36;;;;;;;86.87;38.63;;;8.80;99.90;;;;;;4991881;28;20026;-74
2021/12/16 06:26:56;;;;;;;76.37;32.43;;;;;;;;;;4991257;28;20033;-74
2021/12/16 06:29:22;;;;;;;103.03;33.67;;;8.80;99.90;;;;;;4991573;28;20490;-74
2021/12/16 06:31:48;;;;;;;85.20;33.97;;;;;;;;;;5005519;28;20034;-75
2021/12/16 06:34:15;;;;;;;74.33;33.20;;;8.70;99.90;;;;;;5010320;28;20527;-75
2021/12/16 06:36:40;;;;;;;142.73;39.20;;;8.80;99.90;;;;;;5009512;28;20061;-74
2021/12/16 06:39:06;;;;;;;202.30;45.40;;;;;;;;;;5007504;28;20467;-74
2021/12/16 06:41:36;;;;;;;146.23;38.77;;;;;;;;;;4991272;28;20069;-74
2021/12/16 06:44:13;;;;;;;158.40;40.10;;;8.70;99.90;;;;;;4990811;28;20070;-74
2021/12/16 06:46:41;;;;;;;124.83;39.20;;;;;;;;;;5006317;28;20022;-74
2021/12/16 06:49:08;;;;;;;89.83;31.60;;;8.80;99.90;;;;;;4991002;28;20113;-74
2021/12/16 06:51:45;;;;;;;142.90;39.67;;;8.60;99.90;;;;;;4991397;28;20428;-74
2021/12/16 06:54:22;;;;;;;114.90;34.33;;;;;;;;;;4990438;28;20049;-74
2021/12/16 06:56:57;;;;;;;93.73;34.40;;;8.70;99.90;;;;;;4991245;28;20019;-74
2021/12/16 06:59:29;;;;;;;92.67;33.07;;;;;;;;;;4991052;28;20113;-74
2021/12/16 07:02:14;;;;;;;96.80;33.33;;;8.60;99.90;;;;;;5005481;28;20030;-75
2021/12/16 07:04:43;;;;;;;120.47;37.50;;;8.60;99.90;;;;;;5009518;28;20476;-73
2021/12/16 07:07:10;;;;;;;66.97;31.00;;;8.70;99.90;;;;;;5009962;28;20062;-73
2021/12/16 07:09:36;;;;;;;162.57;42.10;;;8.30;99.90;;;;;;5010184;28;20030;-73
2021/12/16 07:12:02;;;;;;;104.10;34.27;;;8.60;99.90;;;;;;5010124;28;20108;-73
2021/12/16 07:14:40;;;;;;;153.90;38.93;;;8.70;99.90;;;;;;5009193;28;20035;-72
2021/12/16 07:17:14;;;;;;;96.83;32.77;;;8.70;99.90;;;;;;5010007;28;20054;-73
2021/12/16 07:19:41;;;;;;;55.92;28.67;;;8.80;99.90;;;;;;5010457;28;20419;-73
2021/12/16 07:22:09;;;;;;;53.57;27.70;;;8.80;99.90;;;;;;5009839;28;20026;-72
2021/12/16 07:24:35;;;;;;;44.17;24.57;;;8.70;99.90;;;;;;5010113;28;20045;-73
2021/12/16 07:27:02;;;;;;;71.90;26.90;;;8.70;99.90;;;;;;5009944;28;20036;-72
2021/12/16 07:29:28;;;;;;;63.90;28.67;;;8.70;99.90;;;;;;5003964;28;20045;-73
2021/12/16 07:31:54;;;;;;;103.43;31.10;;;8.80;99.90;;;;;;4991474;28;20030;-73
2021/12/16 07:34:20;;;;;;;91.00;29.40;;;8.90;99.90;;;;;;4990628;28;20053;-72
2021/12/16 07:36:46;;;;;;;159.00;34.67;;;8.70;99.90;;;;;;4990559;28;20067;-72
2021/12/16 07:39:16;;;;;;;128.50;33.83;;;8.80;99.90;;;;;;4989968;28;20387;-73
2021/12/16 07:41:46;;;;;;;57.37;28.23;;;8.80;99.90;;;;;;4990501;28;20110;-73
2021/12/16 07:44:12;;;;;;;128.90;34.10;;;;;;;;;;4990144;28;20484;-73
2021/12/16 07:46:43;;;;;;;75.40;26.50;;;8.80;99.90;;;;;;4990453;28;20503;-71
2021/12/16 07:49:11;;;;;;;142.67;34.73;;;8.70;99.90;;;;;;4990528;28;20029;-73
2021/12/16 07:51:38;;;;;;;67.83;26.80;;;8.60;99.90;;;;;;4994202;28;20546;-72
2021/12/16 07:54:05;;;;;;;51.57;25.87;;;8.70;99.90;;;;;;4990684;28;20023;-73
2021/12/16 07:56:31;;;;;;;49.37;24.10;;;8.80;99.90;;;;;;5007958;28;20034;-72
2021/12/16 07:58:57;;;;;;;77.40;28.03;;;;;;;;;;4993247;28;20034;-73
2021/12/16 08:01:24;;;;;;;57.33;26.40;;;8.70;99.90;;;;;;5006379;28;20030;-71
2021/12/16 08:03:50;;;;;;;70.47;27.73;;;8.60;99.90;;;;;;5013495;28;20018;-72
2021/12/16 08:06:22;;;;;;;67.83;27.53;;;8.70;99.90;;;;;;5013194;28;20076;-72
2021/12/16 08:08:49;;;;;;;103.23;33.37;;;8.60;99.90;;;;;;5013188;28;20353;-72
2021/12/16 08:11:15;;;;;;;67.13;29.47;;;8.70;99.90;;;;;;5013209;28;20030;-72
2021/12/16 08:13:41;;;;;;;47.73;24.90;;;8.60;99.90;;;;;;5008096;28;20360;-72
2021/12/16 08:16:07;;;;;;;66.83;29.93;;;8.30;99.90;;;;;;4993355;28;20046;-71
2021/12/16 08:18:32;;;;;;;57.17;27.00;;;8.60;99.90;;;;;;4993933;28;20049;-73
2021/12/16 08:20:58;;;;;;;64.37;29.37;;;8.70;99.90;;;;;;4993320;28;20030;-71
2021/12/16 08:23:24;;;;;;;43.17;22.37;;;8.60;99.90;;;;;;4993911;28;20034;-71
2021/12/16 08:25:50;;;;;;;54.10;25.83;;;;;;;;;;4993203;28;20022;-71
2021/12/16 08:28:16;;;;;;;70.03;27.00;;;8.70;99.90;;;;;;4993586;28;20459;-72
2021/12/16 08:30:46;;;;;;;55.97;26.17;;;8.70;99.90;;;;;;4995570;28;20022;-72
2021/12/16 08:33:13;;;;;;;52.27;26.67;;;8.50;99.90;;;;;;4993718;28;20058;-71
2021/12/16 08:35:43;;;;;;;43.20;23.53;;;9.00;99.90;;;;;;4993117;28;20022;-71
2021/12/16 08:38:12;;;;;;;44.77;24.67;;;8.90;99.90;;;;;;4993212;28;20031;-72
2021/12/16 08:40:40;;;;;;;101.23;30.93;;;8.80;99.90;;;;;;4993423;28;20033;-72
2021/12/16 08:43:06;;;;;;;55.70;25.53;;;8.80;99.90;;;;;;4993161;28;20356;-71
2021/12/16 08:45:32;;;;;;;49.60;25.17;;;8.90;99.90;;;;;;4992320;28;20142;-71
2021/12/16 08:47:59;;;;;;;52.77;26.00;;;8.90;99.90;;;;;;4993453;28;20079;-72
2021/12/16 08:50:29;;;;;;;47.03;23.97;;;8.80;99.90;;;;;;4992894;28;20029;-72
2021/12/16 08:52:55;;;;;;;61.00;27.33;;;8.80;99.90;;;;;;4992971;28;20011;-72
2021/12/16 08:55:22;;;;;;;54.93;24.30;;;8.80;99.90;;;;;;4992330;28;20026;-72
2021/12/16 08:57:48;;;;;;;46.67;23.37;;;;;;;;;;4993252;28;20030;-72
2021/12/16 09:00:20;;;;;;;92.43;30.23;;;8.90;99.90;;;;;;4996708;28;20080;-71
2021/12/16 09:02:45;;;;;;;54.57;23.67;;;8.80;99.90;;;;;;5012370;28;20052;-72
2021/12/16 09:05:11;;;;;;;74.10;25.73;;;;;;;;;;5011736;28;20025;-71
2021/12/16 09:07:38;;;;;;;90.67;27.13;;;8.90;99.90;;;;;;5012616;28;20109;-72
2021/12/16 09:10:07;;;;;;;64.00;24.33;;;8.60;99.90;;;;;;5012316;28;20022;-71
2021/12/16 09:14:59;;;;;;;69.13;25.10;;;;;;;;;;4992580;28;20054;-71
2021/12/16 09:17:25;;;;;;;77.50;24.83;;;;;;;;;;4993003;28;20088;-71
2021/12/16 09:19:53;;;;;;;51.33;24.63;;;8.80;99.90;;;;;;4992119;28;20036;-72
2021/12/16 09:22:20;;;;;;;99.33;26.77;;;8.80;99.90;;;;;;4992652;28;20049;-72
2021/12/16 09:24:47;;;;;;;47.50;23.80;;;8.90;99.90;;;;;;4992725;28;20388;-72
2021/12/16 09:27:14;;;;;;;73.03;25.97;;;8.90;99.90;;;;;;4992452;28;20038;-71
2021/12/16 09:29:41;;;;;;;42.13;22.27;;;;;;;;;;4993736;28;20034;-71
2021/12/16 09:32:07;;;;;;;45.33;21.60;;;8.90;99.90;;;;;;4992327;28;20026;-72
2021/12/16 09:34:35;;;;;;;40.77;20.17;;;9.00;99.90;;;;;;4992167;28;20152;-72
2021/12/16 09:37:00;;;;;;;41.40;22.97;;;9.00;99.90;;;;;;5007124;28;20061;-71
2021/12/16 09:39:27;;;;;;;51.00;24.20;;;9.00;99.90;;;;;;4992340;28;20054;-72
2021/12/16 09:41:55;;;;;;;74.20;27.60;;;9.00;99.90;;;;;;4989416;28;20054;-72
2021/12/16 09:44:22;;;;;;;62.30;25.80;;;9.10;99.90;;;;;;4992056;28;20435;-71
2021/12/16 09:46:50;;;;;;;53.80;24.90;;;9.00;99.90;;;;;;4992202;28;20102;-72
2021/12/16 09:49:17;;;;;;;55.80;23.23;;;9.10;99.90;;;;;;4991833;28;20034;-71
2021/12/16 09:51:43;;;;;;;64.63;25.57;;;9.10;99.90;;;;;;4992454;28;20404;-72
2021/12/16 09:54:19;;;;;;;46.10;22.90;;;9.30;99.90;;;;;;4991909;28;20073;-72
2021/12/16 09:56:48;;;;;;;36.40;20.93;;;9.10;99.90;;;;;;4991915;28;20018;-71
2021/12/16 09:59:15;;;;;;;60.53;26.67;;;9.20;99.90;;;;;;4991495;28;20436;-72
2021/12/16 10:01:43;;;;;;;35.90;21.13;;;9.30;99.90;;;;;;5004154;28;20035;-71
2021/12/16 10:04:13;;;;;;;41.50;21.60;;;9.20;99.90;;;;;;4991241;28;20382;-71
2021/12/16 10:06:41;;;;;;;47.00;23.53;;;8.80;99.90;;;;;;4990790;28;20026;-72
2021/12/16 10:09:08;;;;;;;50.53;24.13;;;9.30;99.90;;;;;;4990334;28;20121;-72
2021/12/16 10:11:36;;;;;;;61.37;25.50;;;9.20;99.90;;;;;;4990853;28;20050;-72
2021/12/16 10:14:18;;;;;;;50.90;24.83;;;9.20;99.90;;;;;;4989810;28;20113;-72
2021/12/16 10:19:33;;;;;;;50.53;21.87;;;9.60;99.90;;;;;;4990817;28;20513;-72
2021/12/16 10:22:18;;;;;;;34.23;19.70;;;9.30;99.90;;;;;;4990307;28;20026;-72
2021/12/16 10:24:44;;;;;;;70.72;24.05;;;;;;;;;;4989782;28;20019;-72
2021/12/16 10:27:17;;;;;;;57.80;23.90;;;9.20;99.90;;;;;;5005452;28;20041;-71
2021/12/16 10:29:51;;;;;;;31.88;19.65;;;9.40;99.90;;;;;;4991216;28;20026;-72
2021/12/16 10:32:39;;;;;;;42.00;21.67;;;9.40;99.90;;;;;;4988547;28;20106;-71
2021/12/16 10:35:11;;;;;;;57.10;22.73;;;9.30;99.90;;;;;;5004783;28;20029;-72
2021/12/16 10:37:39;;;;;;;33.50;21.23;;;9.30;99.90;;;;;;4990137;28;20050;-72
2021/12/16 10:40:28;;;;;;;42.63;22.07;;;9.40;99.90;;;;;;4990602;28;20375;-71
2021/12/16 10:42:56;;;;;;;55.73;23.20;;;9.50;99.90;;;;;;4990833;28;20615;-72
2021/12/16 10:45:43;;;;;;;57.90;25.77;;;9.40;99.90;;;;;;4991016;28;20033;-72
2021/12/16 10:48:17;;;;;;;46.23;23.80;;;9.40;99.90;;;;;;4990861;28;20022;-71
2021/12/16 10:51:24;;;;;;;41.15;21.52;;;9.50;99.90;;;;;;4991229;28;20038;-71
2021/12/16 10:53:57;;;;;;;58.37;23.13;;;9.40;99.90;;;;;;4990364;28;20038;-71
2021/12/16 10:56:38;;;;;;;34.47;20.02;;;9.30;99.90;;;;;;4990812;28;20019;-72
2021/12/16 10:59:11;;;;;;;35.83;20.07;;;9.50;99.90;;;;;;4990853;28;20022;-72
2021/12/16 11:01:46;;;;;;;44.70;21.35;;;9.50;99.90;;;;;;4991340;28;20034;-71
2021/12/16 11:04:34;;;;;;;43.87;20.47;;;9.40;99.90;;;;;;4991633;28;20092;-71
2021/12/16 11:07:10;;;;;;;44.40;21.83;;;9.00;99.90;;;;;;4990430;28;20041;-71
2021/12/16 11:09:53;;;;;;;39.77;19.77;;;9.50;99.90;;;;;;4991056;28;20026;-71
2021/12/16 11:12:23;;;;;;;39.93;21.17;;;9.60;99.90;;;;;;4990678;28;20108;-71
2021/12/16 11:15:04;;;;;;;47.50;21.57;;;9.50;99.90;;;;;;4999165;28;20048;-72
2021/12/16 11:17:36;;;;;;;49.77;21.40;;;9.40;99.90;;;;;;4993034;28;20038;-72
2021/12/16 11:20:08;;;;;;;43.07;21.90;;;9.50;99.90;;;;;;4995040;28;20427;-71
2021/12/16 11:22:37;;;;;;;41.70;20.97;;;9.10;99.90;;;;;;5005650;28;20121;-72
2021/12/16 11:25:19;;;;;;;40.53;20.17;;;9.10;99.90;;;;;;4990142;28;20027;-72
2021/12/16 11:27:49;;;;;;;40.13;20.00;;;9.40;99.90;;;;;;4990675;28;20061;-72
2021/12/16 11:30:19;;;;;;;49.07;20.17;;;9.40;99.90;;;;;;5005318;28;20487;-70
2021/12/16 11:32:47;;;;;;;43.93;21.57;;;9.40;99.90;;;;;;4989937;28;20026;-71
2021/12/16 11:35:37;;;;;;;48.70;19.83;;;9.40;99.90;;;;;;4990377;28;20439;-70
2021/12/16 11:38:23;;;;;;;61.43;23.87;;;9.40;99.90;;;;;;4990082;28;20109;-70
2021/12/16 11:41:01;;;;;;;118.67;32.17;;;9.30;99.90;;;;;;4990666;28;20031;-70
2021/12/16 11:43:37;;;;;;;61.07;25.67;;;9.40;99.90;;;;;;4990748;28;20038;-70
2021/12/16 11:46:10;;;;;;;67.80;26.80;;;9.10;99.90;;;;;;4989849;28;20077;-70
2021/12/16 11:48:40;;;;;;;40.20;21.40;;;9.30;99.90;;;;;;4990492;28;20107;-71
2021/12/16 11:51:14;;;;;;;79.33;28.40;;;9.30;99.90;;;;;;4988997;28;20022;-71
2021/12/16 11:54:05;;;;;;;45.08;22.73;;;9.30;99.90;;;;;;4990533;28;20077;-71
2021/12/16 11:56:55;;;;;;;54.43;23.83;;;9.50;99.90;;;;;;4990631;28;20065;-70
2021/12/16 11:59:27;;;;;;;61.97;21.63;;;9.30;99.90;;;;;;4990078;28;20396;-71
2021/12/16 12:01:53;;;;;;;34.27;20.13;;;9.30;99.90;;;;;;4993772;28;20117;-71
2021/12/16 12:04:26;;;;;;;49.00;24.13;;;9.50;99.90;;;;;;4979694;28;20065;-71
2021/12/16 12:06:52;;;;;;;56.77;24.20;;;;;;;;;;4989856;28;20187;-71
2021/12/16 12:09:18;;;;;;;58.17;24.20;;;9.50;99.90;;;;;;5004913;28;20652;-71
2021/12/16 12:11:44;;;;;;;48.20;25.00;;;9.30;99.90;;;;;;4998850;28;20042;-71
2021/12/16 12:14:17;;;;;;;54.40;24.53;;;9.40;99.90;;;;;;5000301;28;20030;-71
2021/12/16 12:16:45;;;;;;;58.97;25.63;;;9.50;99.90;;;;;;4990139;28;20042;-71
2021/12/16 12:19:15;;;;;;;51.43;25.03;;;9.60;99.90;;;;;;4989797;28;20034;-71
2021/12/16 12:21:41;;;;;;;58.00;25.30;;;;;;;;;;4990189;28;20050;-71
2021/12/16 12:24:13;;;;;;;48.97;24.47;;;9.60;99.90;;;;;;4989885;28;20069;-71
2021/12/16 12:27:00;;;;;;;43.97;22.93;;;9.60;99.90;;;;;;4989901;28;20015;-71
2021/12/16 12:29:32;;;;;;;55.60;23.33;;;9.60;99.90;;;;;;4970503;28;20062;-71
2021/12/16 12:32:00;;;;;;;37.83;23.20;;;9.40;99.90;;;;;;4970591;28;20114;-70
2021/12/16 12:34:26;;;;;;;48.40;21.97;;;9.60;99.90;;;;;;4970717;28;20038;-71
2021/12/16 12:36:54;;;;;;;53.70;23.60;;;9.60;99.90;;;;;;4973312;28;20110;-71
2021/12/16 12:39:24;;;;;;;43.80;23.00;;;9.70;99.90;;;;;;4974375;28;20490;-71
2021/12/16 12:41:50;;;;;;;43.83;22.50;;;;;;;;;;4988310;28;20817;-72
2021/12/16 12:44:16;;;;;;;71.67;26.80;;;;;;;;;;4989118;28;20122;-71
2021/12/16 12:46:43;;;;;;;47.67;25.47;;;10.10;99.90;;;;;;4975118;28;20042;-71
2021/12/16 12:49:13;;;;;;;87.43;28.87;;;9.50;99.90;;;;;;5012472;28;20092;-71
2021/12/16 12:51:43;;;;;;;53.27;23.40;;;9.40;99.90;;;;;;5012677;28;20029;-71
2021/12/16 12:54:18;;;;;;;39.17;22.73;;;9.50;99.90;;;;;;4993118;28;20033;-71
2021/12/16 12:56:44;;;;;;;45.10;24.17;;;9.50;99.90;;;;;;4992853;28;20081;-71
2021/12/16 12:59:12;;;;;;;78.00;28.60;;;9.60;99.90;;;;;;4993107;28;20099;-72
2021/12/16 13:01:53;;;;;;;49.70;24.37;;;9.70;99.90;;;;;;4992173;28;20026;-71
2021/12/16 13:04:27;;;;;;;52.27;26.27;;;9.80;99.90;;;;;;4991539;28;20186;-72
2021/12/16 13:07:05;;;;;;;50.85;23.75;;;9.70;99.90;;;;;;4991446;28;20038;-71
2021/12/16 13:09:31;;;;;;;48.97;24.77;;;;;;;;;;4991677;28;20034;-71
2021/12/16 13:11:57;;;;;;;59.07;26.73;;;9.60;99.90;;;;;;4991864;28;20396;-71
2021/12/16 13:14:41;;;;;;;61.43;25.33;;;9.70;99.90;;;;;;4993147;28;20155;-72
2021/12/16 13:26:05;;;;;;;60.93;29.50;;;9.80;99.90;;;;;;4991721;28;20575;-71
2021/12/16 13:28:40;;;;;;;41.10;25.47;;;9.70;99.90;;;;;;4990240;28;20038;-71
2021/12/16 13:31:29;;;;;;;41.10;23.30;;;9.70;99.90;;;;;;4991888;28;20027;-72
2021/12/16 13:33:57;;;;;;;53.60;25.13;;;9.60;99.90;;;;;;4992134;28;20080;-71
2021/12/16 13:36:41;;;;;;;34.73;21.20;;;9.50;99.90;;;;;;4992323;28;20364;-71
2021/12/16 13:39:16;;;;;;;36.83;20.48;;;9.10;99.90;;;;;;4990603;28;20022;-71
2021/12/16 13:42:06;;;;;;;41.33;23.20;;;9.40;99.90;;;;;;4991534;28;20034;-71
2021/12/16 13:45:05;;;;;;;68.90;27.10;;;9.40;99.90;;;;;;5006934;28;20034;-71
2021/12/16 13:47:53;;;;;;;44.27;24.77;;;9.30;99.90;;;;;;4991218;28;20149;-71
2021/12/16 14:02:30;;;;;;;40.87;25.23;;;9.40;99.90;;;;;;4989703;28;20120;-71
2021/12/16 14:07:54;;;;;;;39.50;25.00;;;9.30;99.90;;;;;;4994857;28;20046;-71
2021/12/16 14:10:33;;;;;;;56.47;26.80;;;9.30;99.90;;;;;;4990309;28;20057;-71
2021/12/16 14:38:57;;;;;;;51.20;25.83;;;;;;;;;;4991141;28;20031;-71
2021/12/16 14:45:10;;;;;;;36.10;21.57;;;9.20;99.90;;;;;;4990347;28;20030;-71
2021/12/16 14:47:17;;;;;;;49.78;25.33;;;9.10;99.90;;;;;;4988811;28;20054;-71
2021/12/16 14:49:50;;;;;;;52.67;27.43;;;9.30;99.90;;;;;;4991164;28;20431;-71
2021/12/16 14:52:21;;;;;;;41.63;24.87;;;9.30;99.90;;;;;;4990849;28;20034;-71
2021/12/16 14:54:58;;;;;;;42.90;24.30;;;9.30;99.90;;;;;;4991117;28;20026;-71
2021/12/16 14:57:32;;;;;;;43.17;23.90;;;9.20;99.90;;;;;;4999452;28;20033;-71
2021/12/16 14:59:58;;;;;;;42.97;22.57;;;9.20;99.90;;;;;;4971117;28;20026;-71
2021/12/16 15:02:29;;;;;;;37.13;21.57;;;9.10;99.90;;;;;;4998556;28;20065;-71
2021/12/16 15:04:55;;;;;;;96.57;31.20;;;;;;;;;;4987872;28;20027;-71
2021/12/16 15:07:24;;;;;;;68.70;30.13;;;9.10;99.90;;;;;;4989131;28;20049;-71
2021/12/16 15:09:50;;;;;;;52.07;29.13;;;;;;;;;;4989179;28;20026;-71
2021/12/16 15:37:16;;;;;;;69.10;29.80;;;9.10;99.90;;;;;;4990643;28;20117;-71
2021/12/16 15:45:24;;;;;;;59.07;29.57;;;9.00;99.90;;;;;;4990625;28;20069;-72
2021/12/16 15:47:54;;;;;;;48.33;26.80;;;9.10;99.90;;;;;;4990232;28;20074;-72
2021/12/16 15:50:26;;;;;;;67.00;28.20;;;9.00;99.90;;;;;;4992277;28;20018;-72
2021/12/16 15:52:54;;;;;;;54.67;28.47;;;9.00;99.90;;;;;;5009814;28;20532;-72
2021/12/16 15:55:28;;;;;;;116.53;38.90;;;9.10;99.90;;;;;;5010183;28;20040;-72
2021/12/16 15:58:04;;;;;;;84.73;32.57;;;9.10;99.90;;;;;;5009969;28;20382;-73
2021/12/16 16:00:29;;;;;;;82.90;35.20;;;9.10;99.90;;;;;;5009978;28;20553;-73
2021/12/16 16:02:57;;;;;;;66.93;32.00;;;9.00;99.90;;;;;;5008316;28;20034;-73
2021/12/16 16:05:24;;;;;;;102.60;36.30;;;;;;;;;;5006573;28;20025;-73
2021/12/16 16:07:58;;;;;;;144.80;39.00;;;8.90;99.90;;;;;;5010083;28;20104;-72
2021/12/16 16:10:24;;;;;;;46.50;25.80;;;8.90;99.90;;;;;;5010641;28;20041;-72
2021/12/16 16:12:50;;;;;;;101.53;32.93;;;;;;;;;;5013692;28;20034;-72
2021/12/16 16:15:18;;;;;;;60.77;27.53;;;9.00;99.90;;;;;;5013597;28;20022;-72
2021/12/16 16:18:00;;;;;;;86.70;29.23;;;9.30;99.90;;;;;;5013877;28;20029;-75
2021/12/16 16:20:32;;;;;;;66.93;28.33;;;8.80;99.90;;;;;;5000716;28;20030;-74
2021/12/16 16:23:13;;;;;;;52.20;28.37;;;8.80;99.90;;;;;;4992629;28;20140;-74
2021/12/16 16:25:39;;;;;;;85.67;28.73;;;8.90;99.90;;;;;;5008130;28;20452;-74
2021/12/16 16:28:08;;;;;;;43.80;24.77;;;8.90;99.90;;;;;;4993261;28;20030;-76
2021/12/16 16:30:34;;;;;;;43.73;23.47;;;8.80;99.90;;;;;;4993591;28;20026;-75
2021/12/16 16:33:01;;;;;;;54.87;24.87;;;;;;;;;;4993173;28;20479;-75
2021/12/16 16:35:28;;;;;;;44.23;25.33;;;8.90;99.90;;;;;;4994015;28;20019;-75
2021/12/16 16:38:05;;;;;;;72.37;30.07;;;8.90;99.90;;;;;;4990650;28;20022;-75
2021/12/16 16:40:36;;;;;;;41.63;24.67;;;8.80;99.90;;;;;;4992436;28;20048;-75
2021/12/16 16:43:02;;;;;;;51.30;25.70;;;8.90;99.90;;;;;;4990152;28;20487;-75
2021/12/16 16:45:30;;;;;;;47.17;23.63;;;8.80;99.90;;;;;;4993433;28;20043;-75